Time;durP1;ratioP1;P1;durP2;ratioP2;P2;SDS_P1;SDS_P2;PMS_P1;PMS_P2;Temp;Humidity;BMP_temperature;BMP_pressure;BME280_temperature;BME280_humidity;BME280_pressure;Samples;Min_cycle;Max_cycle;Signal;HPM_P1;HPM_P2
2023/03/13 00:02:04;;;;;;;0.80;0.57;;;8.00;65.10;;;;;;5057231;28;20068;-78
2023/03/13 00:04:30;;;;;;;1.38;0.40;;;7.90;65.00;;;;;;5040614;28;20040;-78
2023/03/13 00:06:55;;;;;;;0.93;0.50;;;8.00;65.10;;;;;;5042651;28;20079;-79
2023/03/13 00:09:22;;;;;;;1.08;0.70;;;7.90;65.00;;;;;;5041804;28;20136;-79
2023/03/13 00:11:48;;;;;;;0.70;0.40;;;7.90;65.10;;;;;;5041832;28;20543;-79
2023/03/13 00:14:14;;;;;;;0.80;0.40;;;7.90;64.90;;;;;;5058278;28;20036;-79
2023/03/13 00:16:40;;;;;;;0.50;0.40;;;7.90;64.80;;;;;;5031881;28;20036;-80
2023/03/13 00:19:07;;;;;;;0.28;0.28;;;7.90;64.80;;;;;;5032108;28;20032;-79
2023/03/13 00:21:36;;;;;;;0.68;0.47;;;7.90;64.80;;;;;;5057844;28;20128;-79
2023/03/13 00:24:02;;;;;;;0.50;0.50;;;7.90;64.70;;;;;;5058057;28;20965;-79
2023/03/13 00:26:29;;;;;;;1.30;0.50;;;7.90;64.80;;;;;;5042448;28;20083;-79
2023/03/13 00:28:56;;;;;;;1.30;0.52;;;7.90;64.90;;;;;;5044109;28;20032;-79
2023/03/13 00:31:25;;;;;;;0.73;0.40;;;7.80;64.80;;;;;;5041779;28;20044;-79
2023/03/13 00:33:54;;;;;;;0.55;0.40;;;7.90;64.60;;;;;;5043603;28;20051;-79
2023/03/13 00:36:23;;;;;;;0.90;0.50;;;7.80;64.60;;;;;;5027381;28;20064;-77
2023/03/13 00:38:51;;;;;;;1.10;0.50;;;7.90;64.50;;;;;;5038313;28;20033;-77
2023/03/13 00:41:22;;;;;;;0.90;0.38;;;7.80;64.40;;;;;;5038163;28;20043;-78
2023/03/13 00:43:50;;;;;;;0.55;0.55;;;7.80;64.50;;;;;;5030499;28;20047;-78
2023/03/13 00:46:19;;;;;;;1.10;0.35;;;7.80;64.50;;;;;;5057765;28;20423;-79
2023/03/13 00:48:45;;;;;;;1.23;0.70;;;7.80;64.30;;;;;;5056552;28;20037;-79
2023/03/13 00:51:12;;;;;;;1.30;0.50;;;7.80;64.40;;;;;;5028373;28;20442;-78
2023/03/13 00:53:38;;;;;;;0.30;0.30;;;7.80;64.40;;;;;;5025082;28;20420;-79
2023/03/13 00:56:07;;;;;;;1.33;0.43;;;7.80;64.40;;;;;;5022977;28;20045;-79
2023/03/13 00:58:36;;;;;;;1.00;0.30;;;7.80;64.40;;;;;;5041973;28;20033;-79
2023/03/13 01:01:15;;;;;;;0.52;0.52;;;7.80;64.30;;;;;;5050060;28;20036;-79
2023/03/13 01:03:43;;;;;;;1.50;0.60;;;7.80;64.40;;;;;;5042852;28;20435;-80
2023/03/13 01:06:13;;;;;;;0.85;0.50;;;7.70;64.40;;;;;;5024332;28;20070;-79
2023/03/13 01:08:39;;;;;;;1.02;0.47;;;7.80;64.40;;;;;;5032324;28;20028;-80
2023/03/13 01:11:08;;;;;;;2.42;0.40;;;7.70;64.20;;;;;;5044771;28;20037;-80
2023/03/13 01:13:34;;;;;;;0.75;0.60;;;7.80;64.30;;;;;;5056644;28;20042;-80
2023/03/13 01:16:13;;;;;;;0.38;0.38;;;7.70;64.10;;;;;;5047626;28;20036;-83
2023/03/13 01:18:42;;;;;;;2.30;0.52;;;7.70;64.20;;;;;;5039808;28;20053;-83
2023/03/13 01:21:09;;;;;;;0.55;0.30;;;7.80;64.20;;;;;;5030186;28;20032;-83
2023/03/13 01:23:35;;;;;;;0.63;0.40;;;7.70;64.20;;;;;;5057353;28;20029;-82
2023/03/13 01:26:05;;;;;;;0.73;0.65;;;7.70;64.20;;;;;;5042467;28;20045;-82
2023/03/13 01:28:32;;;;;;;0.75;0.40;;;7.70;64.00;;;;;;5030030;28;20137;-82
2023/03/13 01:30:58;;;;;;;0.73;0.40;;;7.70;64.00;;;;;;5045211;28;20036;-83
2023/03/13 01:33:24;;;;;;;0.73;0.57;;;7.70;63.90;;;;;;5043978;28;20115;-81
2023/03/13 01:35:50;;;;;;;0.40;0.40;;;7.70;63.80;;;;;;5033877;28;20131;-83
2023/03/13 01:38:16;;;;;;;0.60;0.50;;;7.70;63.80;;;;;;5045016;28;20514;-81
2023/03/13 01:40:47;;;;;;;0.40;0.38;;;7.70;63.80;;;;;;5038701;28;20032;-81
2023/03/13 01:43:21;;;;;;;0.30;0.30;;;7.70;63.80;;;;;;5057888;28;20060;-81
2023/03/13 01:45:57;;;;;;;0.47;0.40;;;7.70;63.60;;;;;;5030084;28;20589;-81
2023/03/13 01:48:39;;;;;;;0.45;0.40;;;7.70;63.60;;;;;;5008665;28;20381;-80
2023/03/13 01:51:17;;;;;;;2.30;0.40;;;7.60;63.40;;;;;;5042842;28;20492;-80
2023/03/13 01:53:46;;;;;;;0.45;0.32;;;7.60;63.40;;;;;;5030687;28;20036;-80
2023/03/13 01:56:21;;;;;;;4.43;0.30;;;7.60;63.20;;;;;;5046713;28;20082;-76
2023/03/13 01:58:49;;;;;;;0.55;0.50;;;7.70;63.30;;;;;;5046003;28;20135;-79
2023/03/13 02:01:17;;;;;;;0.50;0.32;;;7.70;63.40;;;;;;5050217;28;20124;-78
2023/03/13 02:03:45;;;;;;;0.40;0.40;;;7.60;63.50;;;;;;5034136;28;20033;-79
2023/03/13 02:06:11;;;;;;;1.42;0.55;;;7.60;63.50;;;;;;5045215;28;20101;-79
2023/03/13 02:08:46;;;;;;;2.05;0.43;;;7.60;63.70;;;;;;5049518;28;20044;-79
2023/03/13 02:11:42;;;;;;;0.40;0.38;;;7.60;63.80;;;;;;5017344;28;20530;-79
2023/03/13 02:14:08;;;;;;;1.45;0.38;;;7.60;63.80;;;;;;5047756;28;20516;-78
2023/03/13 02:16:36;;;;;;;0.38;0.30;;;7.60;63.80;;;;;;5032432;28;20036;-77
2023/03/13 02:19:39;;;;;;;0.95;0.52;;;7.60;63.90;;;;;;5033668;28;20037;-77
2023/03/13 02:22:33;;;;;;;0.90;0.43;;;7.60;63.60;;;;;;5032818;28;20039;-77
2023/03/13 02:25:54;;;;;;;1.75;0.60;;;7.60;63.60;;;;;;5042825;28;20036;-79
2023/03/13 02:28:33;;;;;;;0.30;0.30;;;7.60;63.70;;;;;;4953991;28;20178;-81
2023/03/13 02:31:01;;;;;;;1.10;0.43;;;7.60;63.70;;;;;;5013006;28;20072;-81
2023/03/13 02:33:34;;;;;;;0.52;0.40;;;7.60;63.70;;;;;;5033906;28;21520;-79
2023/03/13 02:36:02;;;;;;;0.77;0.40;;;7.60;63.60;;;;;;5049006;28;20418;-79
2023/03/13 02:38:31;;;;;;;0.65;0.45;;;7.60;63.60;;;;;;5047600;28;21137;-80
2023/03/13 02:41:00;;;;;;;2.08;0.50;;;7.60;63.50;;;;;;5049392;28;20033;-79
2023/03/13 02:43:31;;;;;;;1.75;0.60;;;7.60;63.40;;;;;;5059311;28;20504;-78
2023/03/13 02:46:02;;;;;;;0.90;0.80;;;7.60;63.40;;;;;;5047510;28;20079;-78
2023/03/13 02:48:45;;;;;;;3.00;0.90;;;7.60;63.40;;;;;;5045030;28;20123;-79
2023/03/13 02:51:41;;;;;;;1.60;1.05;;;7.60;63.40;;;;;;5045698;28;20039;-79
2023/03/13 02:54:16;;;;;;;4.32;1.13;;;7.50;63.40;;;;;;5058720;28;20071;-78
2023/03/13 02:56:47;;;;;;;2.00;1.30;;;7.60;63.60;;;;;;5048886;28;20029;-78
2023/03/13 02:59:13;;;;;;;1.73;1.35;;;7.50;63.50;;;;;;5041978;28;20040;-79
2023/03/13 03:01:42;;;;;;;3.88;1.23;;;7.50;63.40;;;;;;5031768;28;20060;-79
2023/03/13 03:04:08;;;;;;;2.65;1.70;;;7.50;63.30;;;;;;5014560;28;20037;-79
2023/03/13 03:06:34;;;;;;;2.95;1.52;;;7.60;63.40;;;;;;5059166;28;20566;-79
2023/03/13 03:09:03;;;;;;;3.25;2.20;;;7.50;63.30;;;;;;5047732;28;20036;-79
2023/03/13 03:11:32;;;;;;;5.22;2.20;;;7.50;63.30;;;;;;5047500;28;20155;-79
2023/03/13 03:14:03;;;;;;;4.85;2.58;;;7.50;63.30;;;;;;5051447;28;20036;-81
2023/03/13 03:16:35;;;;;;;5.65;3.05;;;7.50;63.30;;;;;;5031388;28;20047;-79
2023/03/13 03:19:05;;;;;;;6.82;3.85;;;7.50;63.30;;;;;;5045703;28;20528;-80
2023/03/13 03:21:32;;;;;;;8.65;4.10;;;7.50;63.20;;;;;;5027770;28;20144;-81
2023/03/13 03:23:58;;;;;;;9.43;4.32;;;7.50;63.30;;;;;;5049091;28;20068;-79
2023/03/13 03:26:24;;;;;;;9.93;4.88;;;7.50;63.30;;;;;;5012642;28;20041;-80
2023/03/13 03:28:51;;;;;;;9.38;5.18;;;7.50;63.30;;;;;;5021979;28;20040;-79
2023/03/13 03:31:18;;;;;;;8.80;5.18;;;7.50;63.30;;;;;;5054956;28;20074;-79
2023/03/13 03:33:47;;;;;;;10.40;6.07;;;7.40;63.80;;;;;;5043502;28;20041;-80
2023/03/13 03:36:17;;;;;;;11.52;6.45;;;7.50;63.40;;;;;;5044893;28;20126;-80
2023/03/13 03:38:44;;;;;;;12.20;6.18;;;7.50;63.40;;;;;;5037260;28;20033;-79
2023/03/13 03:41:13;;;;;;;10.82;6.13;;;7.40;63.30;;;;;;5038890;28;20033;-81
2023/03/13 03:43:39;;;;;;;11.45;6.65;;;7.50;63.20;;;;;;5039185;28;20032;-88
2023/03/13 03:46:07;;;;;;;8.82;5.63;;;7.50;63.20;;;;;;5038132;28;20079;-78
2023/03/13 03:48:34;;;;;;;9.00;5.70;;;7.40;63.20;;;;;;5027857;28;20032;-79
2023/03/13 03:51:02;;;;;;;10.32;4.90;;;7.40;63.30;;;;;;5025223;28;20523;-79
2023/03/13 03:53:29;;;;;;;8.02;5.38;;;7.40;63.10;;;;;;5044115;28;20044;-83
2023/03/13 03:55:55;;;;;;;8.52;5.20;;;7.40;63.00;;;;;;5011048;28;20041;-80
2023/03/13 03:58:21;;;;;;;8.50;5.07;;;7.40;63.00;;;;;;5038484;28;20068;-82
2023/03/13 04:01:10;;;;;;;5.97;4.07;;;7.40;62.70;;;;;;5025955;28;20068;-78
2023/03/13 04:03:38;;;;;;;5.65;3.88;;;7.40;62.60;;;;;;5043354;28;20523;-79
2023/03/13 04:06:05;;;;;;;6.50;4.32;;;7.40;62.60;;;;;;5041708;28;20048;-78
2023/03/13 04:08:32;;;;;;;5.07;3.90;;;7.30;62.50;;;;;;5026880;28;20412;-78
2023/03/13 04:11:00;;;;;;;5.57;3.72;;;7.40;62.60;;;;;;5025155;28;20044;-78
2023/03/13 04:13:27;;;;;;;8.10;4.13;;;7.40;62.50;;;;;;5038226;28;20044;-75
2023/03/13 04:15:55;;;;;;;6.55;3.85;;;7.40;62.40;;;;;;5039291;28;20037;-76
2023/03/13 04:18:21;;;;;;;6.38;3.85;;;7.30;62.20;;;;;;5026831;28;20036;-75
2023/03/13 04:20:48;;;;;;;5.88;3.65;;;7.30;62.10;;;;;;5039442;28;20061;-75
2023/03/13 04:23:14;;;;;;;8.98;3.35;;;7.40;62.20;;;;;;5042096;28;20583;-76
2023/03/13 04:25:40;;;;;;;4.47;3.33;;;7.30;62.10;;;;;;5037594;28;20064;-74
2023/03/13 04:28:09;;;;;;;5.43;3.10;;;7.30;62.00;;;;;;5041959;28;20031;-75
2023/03/13 04:30:40;;;;;;;4.93;3.13;;;7.40;62.20;;;;;;5036121;28;20033;-87
2023/03/13 04:33:27;;;;;;;3.97;2.92;;;7.30;62.10;;;;;;4996302;28;20039;-83
2023/03/13 04:36:13;;;;;;;3.47;2.58;;;7.30;62.20;;;;;;4924205;29;20171;-80
2023/03/13 04:39:17;;;;;;;5.65;2.92;;;7.30;62.40;;;;;;4903546;29;20131;-76
2023/03/13 04:41:58;;;;;;;3.08;2.65;;;7.30;63.00;;;;;;4906365;29;20431;-80
2023/03/13 04:44:44;;;;;;;6.35;2.30;;;7.30;64.10;;;;;;4909760;29;20094;-78
2023/03/13 04:47:30;;;;;;;;;;;7.30;64.80;;;;;;4901729;29;20048;-76
2023/03/13 04:50:11;;;;;;;5.72;2.42;;;7.30;65.20;;;;;;4909544;29;19923;-76
2023/03/13 04:53:09;;;;;;;6.95;2.80;;;7.30;66.60;;;;;;4888382;29;20035;-79
2023/03/13 04:55:48;;;;;;;4.70;2.40;;;7.40;67.50;;;;;;4920748;29;20047;-77
2023/03/13 04:58:32;;;;;;;3.40;2.53;;;7.40;68.20;;;;;;4922032;29;20167;-77
2023/03/13 05:01:21;;;;;;;4.65;2.25;;;7.40;68.10;;;;;;4914751;29;20036;-76
2023/03/13 05:04:13;;;;;;;4.63;2.13;;;7.40;68.00;;;;;;4909717;29;20164;-75
2023/03/13 05:07:11;;;;;;;4.78;2.30;;;7.40;68.00;;;;;;4903602;29;20107;-76
2023/03/13 05:09:57;;;;;;;;;;;7.40;67.90;;;;;;4934935;28;20200;-75
2023/03/13 05:12:32;;;;;;;3.42;1.73;;;7.40;67.50;;;;;;4995975;28;19923;-77
2023/03/13 05:15:16;;;;;;;5.72;2.10;;;7.50;67.50;;;;;;5055902;28;20510;-76
2023/03/13 05:18:06;;;;;;;2.72;1.73;;;7.50;67.30;;;;;;4984246;28;20512;-75
2023/03/13 05:20:46;;;;;;;4.47;1.90;;;7.50;67.40;;;;;;4976116;28;20034;-76
2023/03/13 05:23:28;;;;;;;4.40;1.90;;;7.50;67.20;;;;;;4967965;28;20061;-78
2023/03/13 05:25:57;;;;;;;2.65;1.70;;;7.50;67.20;;;;;;4976566;28;20156;-73
2023/03/13 05:28:29;;;;;;;2.92;1.55;;;7.50;67.00;;;;;;4983414;28;20035;-76
2023/03/13 05:31:15;;;;;;;3.85;1.58;;;7.50;66.70;;;;;;4947198;28;20057;-76
2023/03/13 05:33:56;;;;;;;4.80;1.45;;;7.50;66.80;;;;;;4951844;28;20075;-88
2023/03/13 05:36:25;;;;;;;11.50;2.10;;;7.50;66.80;;;;;;4970902;28;20146;-88
2023/03/13 05:39:14;;;;;;;9.25;1.60;;;7.50;67.20;;;;;;4926355;29;20031;-79
2023/03/13 05:41:46;;;;;;;5.80;1.95;;;7.50;68.20;;;;;;4939984;29;20545;-77
2023/03/13 05:44:30;;;;;;;2.75;1.42;;;7.50;68.30;;;;;;4934446;29;20082;-77
2023/03/13 05:47:31;;;;;;;5.72;1.20;;;7.60;68.70;;;;;;4878595;29;20529;-78
2023/03/13 05:50:21;;;;;;;3.38;1.25;;;7.60;68.70;;;;;;4931890;29;20039;-78
2023/03/13 05:53:19;;;;;;;5.10;1.67;;;7.60;69.00;;;;;;4920494;29;20044;-80
2023/03/13 05:56:04;;;;;;;7.88;1.73;;;7.60;69.30;;;;;;4909517;29;20055;-79
2023/03/13 05:58:52;;;;;;;5.35;1.73;;;7.60;68.60;;;;;;4903868;29;20044;-80
2023/03/13 06:01:49;;;;;;;4.53;1.33;;;7.60;64.30;;;;;;4904824;29;20040;-79
2023/03/13 06:04:34;;;;;;;3.72;1.55;;;7.60;61.40;;;;;;4903387;29;20054;-81
2023/03/13 06:07:01;;;;;;;2.47;1.10;;;7.60;60.20;;;;;;4903777;29;20040;-83
2023/03/13 06:09:27;;;;;;;2.17;1.27;;;7.60;59.10;;;;;;4947183;28;20506;-79
2023/03/13 06:11:55;;;;;;;2.63;1.13;;;7.50;57.30;;;;;;4951488;28;20042;-81
2023/03/13 06:14:21;;;;;;;2.28;1.45;;;7.50;57.10;;;;;;4950049;28;20043;-79
2023/03/13 06:17:06;;;;;;;1.95;1.40;;;7.50;57.30;;;;;;5030027;28;20090;-83
2023/03/13 06:19:32;;;;;;;6.65;1.55;;;7.50;57.70;;;;;;5040004;28;20029;-81
2023/03/13 06:21:58;;;;;;;9.50;2.28;;;7.50;57.80;;;;;;5032120;28;20647;-80
2023/03/13 06:24:24;;;;;;;5.70;2.85;;;7.50;57.60;;;;;;5060268;28;20040;-79
2023/03/13 06:26:50;;;;;;;7.63;3.00;;;7.50;57.30;;;;;;5059830;28;20033;-80
2023/03/13 06:29:16;;;;;;;11.55;3.20;;;7.50;57.10;;;;;;5059689;28;20063;-82
2023/03/13 06:31:42;;;;;;;10.63;2.97;;;7.50;57.50;;;;;;5058664;28;20132;-82
2023/03/13 06:34:12;;;;;;;4.68;1.95;;;7.50;57.00;;;;;;5058423;28;20581;-86
2023/03/13 06:36:38;;;;;;;10.95;2.42;;;7.50;57.00;;;;;;5034108;28;20819;-79
2023/03/13 06:39:04;;;;;;;11.35;2.15;;;7.50;57.30;;;;;;5059431;28;20040;-81
2023/03/13 06:41:31;;;;;;;15.45;2.13;;;7.50;57.40;;;;;;5030690;28;20045;-78
2023/03/13 06:43:57;;;;;;;6.78;1.77;;;7.50;57.20;;;;;;5061094;28;21142;-78
2023/03/13 06:46:24;;;;;;;7.93;1.83;;;7.50;57.30;;;;;;5063555;28;20044;-78
2023/03/13 06:48:51;;;;;;;6.03;1.40;;;7.50;57.00;;;;;;5063837;28;20036;-81
2023/03/13 06:51:20;;;;;;;5.40;2.03;;;7.50;56.80;;;;;;5062538;28;20183;-79
2023/03/13 06:53:47;;;;;;;6.35;1.50;;;7.50;56.00;;;;;;5066951;28;20033;-84
2023/03/13 06:56:13;;;;;;;4.95;1.63;;;7.50;56.80;;;;;;5051274;28;20037;-82
2023/03/13 06:58:39;;;;;;;2.20;1.50;;;7.60;57.00;;;;;;5065030;28;20041;-82
2023/03/13 07:01:10;;;;;;;4.03;1.40;;;7.60;56.10;;;;;;5064433;28;20039;-79
2023/03/13 07:03:37;;;;;;;5.68;1.83;;;7.60;55.60;;;;;;5055731;28;20055;-80
2023/03/13 07:06:04;;;;;;;4.35;1.35;;;7.60;56.10;;;;;;5062097;28;20040;-81
2023/03/13 07:08:31;;;;;;;3.60;1.48;;;7.60;55.90;;;;;;5063489;28;20036;-80
2023/03/13 07:10:59;;;;;;;1.80;1.20;;;7.60;55.90;;;;;;5062362;28;20166;-80
2023/03/13 07:13:25;;;;;;;4.95;1.50;;;7.60;55.80;;;;;;5049807;28;20029;-81
2023/03/13 07:15:52;;;;;;;3.47;0.98;;;7.60;55.20;;;;;;5052299;28;20047;-86
2023/03/13 07:18:19;;;;;;;2.13;1.13;;;7.60;54.90;;;;;;5062600;28;20596;-79
2023/03/13 07:20:54;;;;;;;2.97;1.20;;;7.60;54.80;;;;;;5049982;28;20036;-81
2023/03/13 07:23:22;;;;;;;2.50;1.15;;;7.60;55.00;;;;;;5063467;28;20029;-81
2023/03/13 07:25:59;;;;;;;1.55;1.00;;;7.60;54.00;;;;;;5061397;28;20039;-79
2023/03/13 07:28:26;;;;;;;2.88;0.93;;;7.70;55.00;;;;;;5051346;28;20136;-80
2023/03/13 07:30:53;;;;;;;1.20;0.70;;;7.70;54.40;;;;;;5063008;28;20513;-79
2023/03/13 07:33:19;;;;;;;3.80;1.40;;;7.70;53.80;;;;;;5061704;28;20029;-77
2023/03/13 07:35:49;;;;;;;2.25;0.95;;;7.80;53.60;;;;;;5061668;28;20029;-84
2023/03/13 07:38:16;;;;;;;2.92;0.88;;;7.70;54.00;;;;;;5063436;28;20037;-87
2023/03/13 07:40:53;;;;;;;2.50;1.13;;;7.70;54.20;;;;;;5049611;28;20032;-81
2023/03/13 07:43:20;;;;;;;3.00;1.45;;;7.80;58.30;;;;;;5049771;28;20045;-78
2023/03/13 07:45:54;;;;;;;2.72;0.90;;;7.80;57.20;;;;;;5044115;28;20044;-80
2023/03/13 07:48:21;;;;;;;1.35;1.00;;;7.80;56.70;;;;;;5058471;28;20054;-83
2023/03/13 07:50:47;;;;;;;3.13;1.10;;;7.90;56.30;;;;;;5059898;28;20032;-80
2023/03/13 07:53:19;;;;;;;2.05;1.05;;;7.90;56.10;;;;;;5059842;28;20436;-77
2023/03/13 07:56:00;;;;;;;3.90;0.88;;;7.90;55.50;;;;;;5045376;28;20447;-79
2023/03/13 07:58:29;;;;;;;2.60;0.95;;;7.90;55.40;;;;;;5049804;28;20037;-79
2023/03/13 08:00:55;;;;;;;2.38;0.90;;;7.90;55.10;;;;;;5039305;28;20041;-90
2023/03/13 08:03:22;;;;;;;1.58;1.20;;;7.90;54.40;;;;;;5034262;28;20040;-80
2023/03/13 08:06:08;;;;;;;2.65;1.00;;;7.90;53.90;;;;;;5041423;28;20083;-84
2023/03/13 08:08:35;;;;;;;3.13;1.15;;;7.90;54.40;;;;;;5040873;28;20083;-84
2023/03/13 08:11:10;;;;;;;0.85;0.70;;;7.90;53.70;;;;;;5037867;28;20127;-79
2023/03/13 08:13:36;;;;;;;1.10;0.70;;;7.90;54.10;;;;;;5043362;28;20428;-80
2023/03/13 08:16:11;;;;;;;1.80;0.93;;;7.90;54.30;;;;;;5030219;28;20034;-74
2023/03/13 08:18:39;;;;;;;1.30;1.10;;;7.90;54.40;;;;;;5039581;28;20071;-76
2023/03/13 08:21:11;;;;;;;4.10;0.90;;;7.90;56.90;;;;;;5037527;28;20116;-78
2023/03/13 08:23:37;;;;;;;2.47;1.17;;;8.00;57.30;;;;;;5037600;28;20091;-79
2023/03/13 08:26:11;;;;;;;1.35;0.75;;;8.00;56.10;;;;;;5031040;28;20040;-78
2023/03/13 08:28:38;;;;;;;4.80;1.20;;;8.00;55.00;;;;;;5030089;28;20052;-80
2023/03/13 08:31:38;;;;;;;1.50;0.80;;;8.00;55.70;;;;;;5051708;28;20474;-86
2023/03/13 08:34:04;;;;;;;3.00;0.80;;;8.00;55.60;;;;;;5029924;28;20039;-77
2023/03/13 08:36:35;;;;;;;2.63;0.95;;;8.00;54.70;;;;;;5046321;28;20033;-79
2023/03/13 08:39:04;;;;;;;1.38;0.40;;;8.00;54.10;;;;;;5047633;28;20123;-79
2023/03/13 08:41:35;;;;;;;0.47;0.40;;;8.00;54.00;;;;;;5031836;28;20040;-85
2023/03/13 08:44:01;;;;;;;2.78;0.73;;;8.00;53.90;;;;;;5033621;28;20112;-78
2023/03/13 08:46:32;;;;;;;2.17;0.85;;;7.90;54.00;;;;;;5047600;28;20036;-80
2023/03/13 08:48:58;;;;;;;1.85;0.82;;;7.90;53.20;;;;;;5046395;28;20082;-80
2023/03/13 08:51:27;;;;;;;3.63;0.80;;;7.90;53.10;;;;;;5058586;28;20055;-84
2023/03/13 08:53:54;;;;;;;2.10;0.80;;;7.90;53.30;;;;;;5059402;28;20033;-81
2023/03/13 08:56:23;;;;;;;1.38;0.80;;;7.90;53.80;;;;;;5059700;28;20036;-82
2023/03/13 08:58:50;;;;;;;0.68;0.68;;;8.00;54.20;;;;;;5030858;28;20035;-78
2023/03/13 09:01:16;;;;;;;1.60;1.00;;;7.90;54.10;;;;;;5059096;28;20044;-81
2023/03/13 09:03:42;;;;;;;2.15;0.90;;;7.90;54.30;;;;;;5058001;28;20028;-81
2023/03/13 09:06:09;;;;;;;0.90;0.80;;;7.90;54.50;;;;;;5060284;28;20032;-88
2023/03/13 09:08:36;;;;;;;3.03;0.80;;;7.90;54.60;;;;;;5062412;28;20028;-89
2023/03/13 09:11:05;;;;;;;1.23;0.60;;;7.90;54.50;;;;;;5061276;28;20052;-83
2023/03/13 09:13:34;;;;;;;1.60;0.68;;;7.80;54.40;;;;;;5043910;28;20450;-86
2023/03/13 09:16:03;;;;;;;1.67;1.00;;;7.90;54.40;;;;;;5060534;28;20455;-84
2023/03/13 09:18:30;;;;;;;0.80;0.60;;;7.80;54.60;;;;;;5042022;28;20182;-86
2023/03/13 09:20:56;;;;;;;2.70;0.80;;;7.80;55.20;;;;;;5030924;28;20111;-82
2023/03/13 09:23:23;;;;;;;2.85;0.93;;;7.80;54.80;;;;;;5038982;28;20037;-84
2023/03/13 09:25:53;;;;;;;0.65;0.55;;;7.80;54.80;;;;;;5039218;28;20036;-83
2023/03/13 09:28:19;;;;;;;1.58;0.98;;;7.70;55.00;;;;;;5038789;28;20041;-81
2023/03/13 09:30:45;;;;;;;1.20;0.80;;;7.70;54.90;;;;;;5044803;28;20033;-81
2023/03/13 09:33:11;;;;;;;1.00;0.70;;;7.70;55.00;;;;;;5036791;28;20025;-82
2023/03/13 09:35:38;;;;;;;1.30;0.90;;;7.70;55.30;;;;;;5039744;28;20049;-80
2023/03/13 09:38:04;;;;;;;1.15;0.77;;;7.70;55.50;;;;;;5028973;28;20593;-90
2023/03/13 09:40:47;;;;;;;3.80;1.40;;;7.70;55.50;;;;;;5032817;28;20389;-85
2023/03/13 09:43:21;;;;;;;3.22;0.90;;;7.70;55.40;;;;;;5044921;28;20042;-87
2023/03/13 09:45:51;;;;;;;4.78;1.00;;;7.60;55.00;;;;;;5052782;28;20060;-85
2023/03/13 09:48:39;;;;;;;0.98;0.57;;;7.70;55.30;;;;;;5048162;28;20048;-86
2023/03/13 09:51:10;;;;;;;1.73;0.88;;;7.60;55.70;;;;;;5061453;28;20205;-88
2023/03/13 09:53:51;;;;;;;0.95;0.70;;;7.60;55.60;;;;;;5060357;28;20063;-86
2023/03/13 09:56:38;;;;;;;1.63;0.75;;;7.60;55.70;;;;;;5058686;28;20056;-91
2023/03/13 09:59:19;;;;;;;1.58;1.00;;;7.60;55.70;;;;;;5029119;28;20120;-81
2023/03/13 10:01:46;;;;;;;1.17;0.75;;;7.60;55.60;;;;;;5017265;28;20037;-84
2023/03/13 10:04:18;;;;;;;2.05;0.90;;;7.60;56.40;;;;;;5041573;28;20060;-81
2023/03/13 10:06:46;;;;;;;1.88;0.93;;;7.60;56.00;;;;;;5049590;28;20041;-83
2023/03/13 10:09:28;;;;;;;1.48;0.80;;;7.60;56.10;;;;;;5047517;28;20043;-82
2023/03/13 10:12:22;;;;;;;1.80;0.80;;;7.50;56.20;;;;;;5048989;28;20293;-81
2023/03/13 10:15:22;;;;;;;1.55;0.70;;;7.50;55.30;;;;;;5059516;28;20048;-83
2023/03/13 10:17:48;;;;;;;1.33;1.15;;;7.50;56.10;;;;;;5044073;28;20087;-90
2023/03/13 10:20:27;;;;;;;1.38;0.98;;;7.50;56.50;;;;;;5065590;28;20092;-84
2023/03/13 10:22:59;;;;;;;2.38;1.20;;;7.50;56.50;;;;;;5063622;28;20032;-83
2023/03/13 10:25:28;;;;;;;2.13;1.10;;;7.40;56.70;;;;;;5049964;28;20071;-83
2023/03/13 10:27:54;;;;;;;2.28;1.08;;;7.40;56.70;;;;;;5061988;28;20029;-80
2023/03/13 10:30:23;;;;;;;1.30;1.00;;;7.40;56.70;;;;;;5060015;28;20061;-78
2023/03/13 10:32:50;;;;;;;1.58;1.08;;;7.40;56.80;;;;;;5052561;28;20025;-81
2023/03/13 10:35:35;;;;;;;1.52;0.98;;;7.40;56.80;;;;;;5050423;28;20037;-81
2023/03/13 10:38:23;;;;;;;1.45;1.13;;;7.40;56.80;;;;;;5063497;28;20079;-77
2023/03/13 10:41:03;;;;;;;1.80;1.15;;;7.40;56.80;;;;;;5046480;28;20024;-88
2023/03/13 10:43:30;;;;;;;2.63;1.23;;;7.30;56.80;;;;;;5030067;28;20035;-81
2023/03/13 10:45:56;;;;;;;2.70;1.33;;;7.40;56.20;;;;;;5037360;28;20043;-90
2023/03/13 10:48:29;;;;;;;1.75;1.15;;;7.30;55.80;;;;;;5050985;28;20166;-85
2023/03/13 10:50:58;;;;;;;1.90;1.30;;;7.30;56.60;;;;;;5062901;28;20032;-84
2023/03/13 10:53:32;;;;;;;2.92;1.10;;;7.30;57.10;;;;;;5052049;28;20033;-78
2023/03/13 10:56:12;;;;;;;1.42;1.30;;;7.30;57.40;;;;;;5045567;28;20045;-82
2023/03/13 10:58:45;;;;;;;1.38;1.27;;;7.30;57.70;;;;;;5063995;28;20655;-84
2023/03/13 11:01:28;;;;;;;1.83;1.10;;;7.30;58.00;;;;;;5062523;28;20067;-83
2023/03/13 11:04:00;;;;;;;2.30;1.30;;;7.30;57.90;;;;;;5034856;28;20044;-80
2023/03/13 11:06:34;;;;;;;3.90;1.40;;;7.30;57.20;;;;;;5051924;28;20044;-82
2023/03/13 11:09:03;;;;;;;2.90;1.40;;;7.30;57.20;;;;;;5020100;28;20036;-85
2023/03/13 11:11:29;;;;;;;2.83;1.23;;;7.30;57.50;;;;;;5062194;28;20127;-78
2023/03/13 11:14:13;;;;;;;3.50;1.35;;;7.30;57.90;;;;;;5061711;28;20044;-81
2023/03/13 11:16:48;;;;;;;3.50;1.30;;;7.30;58.50;;;;;;5048663;28;20195;-79
2023/03/13 11:19:44;;;;;;;2.22;1.35;;;7.30;59.00;;;;;;5060765;28;20036;-80
2023/03/13 11:22:13;;;;;;;;;;;7.30;59.90;;;;;;5060811;28;20032;-82
2023/03/13 11:24:42;;;;;;;4.25;1.77;;;7.30;60.20;;;;;;5047248;28;20105;-80
2023/03/13 11:27:34;;;;;;;2.25;1.30;;;7.30;60.30;;;;;;5043809;28;20044;-80
2023/03/13 11:30:31;;;;;;;3.30;1.05;;;7.20;60.20;;;;;;5054424;28;20068;-81
2023/03/13 11:33:10;;;;;;;1.20;1.10;;;7.20;59.90;;;;;;5046393;28;20041;-83
2023/03/13 11:36:05;;;;;;;1.98;1.45;;;7.20;59.50;;;;;;5025254;28;20547;-83
2023/03/13 11:38:38;;;;;;;1.50;1.23;;;7.20;58.60;;;;;;5032548;28;20389;-80
2023/03/13 11:41:19;;;;;;;3.83;1.40;;;7.20;58.70;;;;;;5061261;28;20029;-82
2023/03/13 11:44:13;;;;;;;2.72;1.45;;;7.20;58.70;;;;;;5061324;28;20112;-79
2023/03/13 11:46:39;;;;;;;1.42;1.20;;;7.20;58.40;;;;;;5033743;28;20041;-85
2023/03/13 11:49:22;;;;;;;2.55;1.15;;;7.10;57.70;;;;;;5061603;28;20487;-83
2023/03/13 11:52:03;;;;;;;1.70;1.38;;;7.10;57.00;;;;;;5049811;28;20033;-82
2023/03/13 11:54:47;;;;;;;1.55;1.42;;;7.10;56.80;;;;;;5061435;28;20041;-79
2023/03/13 11:57:28;;;;;;;2.03;1.13;;;7.10;56.60;;;;;;5060782;28;20380;-80
2023/03/13 12:00:28;;;;;;;1.63;1.33;;;7.10;56.50;;;;;;5044416;28;20033;-84
2023/03/13 12:03:18;;;;;;;1.60;1.00;;;7.10;57.10;;;;;;5051063;28;20070;-81
2023/03/13 12:05:56;;;;;;;2.40;1.40;;;7.10;56.50;;;;;;5059562;28;20045;-84
2023/03/13 12:08:40;;;;;;;1.35;1.13;;;7.00;56.40;;;;;;5059147;28;20412;-84
2023/03/13 12:11:24;;;;;;;2.75;1.40;;;7.00;56.50;;;;;;5047423;28;20039;-84
2023/03/13 12:13:57;;;;;;;1.10;0.88;;;7.00;56.60;;;;;;5058851;28;20386;-82
2023/03/13 12:16:48;;;;;;;1.50;1.10;;;7.00;56.90;;;;;;5058465;28;20384;-81
2023/03/13 12:19:26;;;;;;;2.13;1.10;;;7.00;57.00;;;;;;5051601;28;20037;-83
2023/03/13 12:21:55;;;;;;;2.25;0.85;;;7.00;57.30;;;;;;5062517;28;20036;-88
2023/03/13 12:24:48;;;;;;;1.40;1.00;;;7.00;57.20;;;;;;5061033;28;20130;-79
2023/03/13 12:27:25;;;;;;;1.35;1.08;;;7.00;56.70;;;;;;5032873;28;20033;-83
2023/03/13 12:30:32;;;;;;;2.90;1.30;;;7.00;57.00;;;;;;5060905;28;20107;-83
2023/03/13 12:33:09;;;;;;;;;;;7.00;56.80;;;;;;5008331;28;20161;-84
2023/03/13 12:35:36;;;;;;;1.20;1.02;;;7.00;56.50;;;;;;5008714;28;19921;-82
2023/03/13 12:38:10;;;;;;;1.13;1.02;;;7.00;56.60;;;;;;5007735;28;20121;-81
2023/03/13 12:40:48;;;;;;;1.35;0.80;;;7.00;56.80;;;;;;4991329;28;20034;-80
2023/03/13 12:43:20;;;;;;;0.63;0.63;;;6.90;56.70;;;;;;4986059;28;20043;-84
2023/03/13 12:45:55;;;;;;;3.58;1.33;;;6.90;56.70;;;;;;5027361;28;20045;-83
2023/03/13 12:48:40;;;;;;;2.08;1.08;;;6.90;56.40;;;;;;5011398;28;20026;-78
2023/03/13 12:51:24;;;;;;;1.38;1.02;;;6.90;56.30;;;;;;5028283;28;20147;-79
2023/03/13 12:54:02;;;;;;;1.98;0.82;;;6.90;56.40;;;;;;5025691;28;20484;-85
2023/03/13 12:56:51;;;;;;;2.17;1.27;;;7.00;56.10;;;;;;5024784;28;20168;-79
2023/03/13 12:59:43;;;;;;;2.00;1.00;;;6.90;56.30;;;;;;5014325;28;20211;-79
2023/03/13 13:02:24;;;;;;;2.05;0.98;;;6.90;56.70;;;;;;4998842;28;20076;-76
2023/03/13 13:04:53;;;;;;;0.85;0.82;;;6.90;56.10;;;;;;5008600;28;20088;-78
2023/03/13 13:07:25;;;;;;;1.42;0.90;;;6.90;55.90;;;;;;5025621;28;21567;-78
2023/03/13 13:10:09;;;;;;;3.63;1.70;;;6.90;56.00;;;;;;5038526;28;20066;-78
2023/03/13 13:12:40;;;;;;;2.45;2.00;;;6.90;56.40;;;;;;5056809;28;20082;-77
2023/03/13 13:15:24;;;;;;;3.65;2.28;;;6.90;55.60;;;;;;5057160;28;20036;-79
2023/03/13 13:18:02;;;;;;;4.07;2.67;;;6.90;55.70;;;;;;5057890;28;20036;-79
2023/03/13 13:20:29;;;;;;;3.38;2.25;;;6.90;55.70;;;;;;5055349;28;20147;-84
2023/03/13 13:23:14;;;;;;;5.55;3.03;;;6.90;56.00;;;;;;5017548;28;20404;-81
2023/03/13 13:25:40;;;;;;;4.93;2.72;;;6.90;56.30;;;;;;5045393;28;20115;-82
2023/03/13 13:28:18;;;;;;;2.40;1.80;;;6.90;56.60;;;;;;5058663;28;20040;-77
2023/03/13 13:30:44;;;;;;;3.35;2.30;;;6.90;56.30;;;;;;5010165;28;20083;-77
2023/03/13 13:33:27;;;;;;;5.45;2.40;;;6.90;56.20;;;;;;5042176;28;20074;-77